Terminal Aerodrome Forecast
Issued by NWS

Home | Current Version | Previous Version | Text Only | Print | Product List | Glossary On
Versions: 1 2 3 4 5 6 7 8 9 10 11 12 13 14 15
873
FTUS43 KICT 020540
TAFHUT
TAF
KHUT 020540Z 0206/0306 01004KT P6SM SKC
     FM021600 04004KT P6SM BKN170
     FM022100 04007KT P6SM OVC130=

USA.gov is the U.S. government's official web portal to all federal, state and local government web resources and services.